Time;durP1;ratioP1;P1;durP2;ratioP2;P2;SDS_P1;SDS_P2;PMS_P1;PMS_P2;Temp;Humidity;BMP_temperature;BMP_pressure;BME280_temperature;BME280_humidity;BME280_pressure;Samples;Min_cycle;Max_cycle;Signal;HPM_P1;HPM_P2
2024/01/20 00:01:55;;;;;;;38.85;22.65;;;-1.60;78.10;;;;;;5041315;28;20389;-76
2024/01/20 00:04:20;;;;;;;41.20;21.77;;;-1.60;76.70;;;;;;5041461;28;20492;-76
2024/01/20 00:06:46;;;;;;;41.10;21.40;;;-1.60;75.10;;;;;;5058374;28;20480;-76
2024/01/20 00:09:11;;;;;;;39.83;22.40;;;-1.70;75.70;;;;;;5059398;28;20377;-76
2024/01/20 00:11:40;;;;;;;40.90;22.02;;;-1.70;79.50;;;;;;5047684;28;20381;-75
2024/01/20 00:14:06;;;;;;;36.47;19.90;;;-1.70;80.00;;;;;;5063684;28;20400;-75
2024/01/20 00:16:31;;;;;;;38.50;22.00;;;-1.80;75.10;;;;;;5062538;28;20385;-76
2024/01/20 00:18:57;;;;;;;35.57;20.40;;;-1.80;77.80;;;;;;5070148;28;20393;-75
2024/01/20 00:21:23;;;;;;;38.10;21.40;;;-1.80;78.70;;;;;;5061261;28;20393;-77
2024/01/20 00:23:49;;;;;;;36.03;20.77;;;-1.80;76.10;;;;;;5064843;28;20419;-76
2024/01/20 00:26:15;;;;;;;32.72;20.05;;;-1.90;78.10;;;;;;5068300;28;20793;-77
2024/01/20 00:28:40;;;;;;;33.90;20.35;;;-2.00;76.70;;;;;;5066339;28;20385;-76
2024/01/20 00:31:06;;;;;;;38.95;20.90;;;-2.00;75.30;;;;;;5062998;28;20386;-76
2024/01/20 00:33:31;;;;;;;39.87;21.30;;;-2.00;77.10;;;;;;5060939;28;20494;-76
2024/01/20 00:35:57;;;;;;;38.30;21.57;;;-2.00;77.60;;;;;;5060339;28;20402;-77
2024/01/20 00:38:24;;;;;;;37.28;21.30;;;-1.90;78.60;;;;;;5059655;28;20820;-76
2024/01/20 00:40:49;;;;;;;34.20;20.38;;;-1.90;78.60;;;;;;5056047;28;20393;-76
2024/01/20 00:43:15;;;;;;;37.80;21.50;;;-1.90;79.40;;;;;;5054489;28;20868;-77
2024/01/20 00:45:40;;;;;;;37.55;21.55;;;-1.90;79.60;;;;;;5054691;28;20389;-76
2024/01/20 00:48:06;;;;;;;37.25;21.63;;;-2.00;78.90;;;;;;5037534;28;20402;-76
2024/01/20 00:50:32;;;;;;;37.23;21.03;;;-1.90;78.50;;;;;;5054119;28;20431;-76
2024/01/20 00:52:57;;;;;;;39.93;21.60;;;-1.90;79.60;;;;;;5054284;28;20389;-76
2024/01/20 00:55:23;;;;;;;41.65;20.20;;;-1.90;79.50;;;;;;5055415;28;20832;-75
2024/01/20 00:57:48;;;;;;;36.97;21.30;;;-1.90;78.90;;;;;;5036774;28;20908;-77
2024/01/20 01:00:14;;;;;;;37.13;21.67;;;-2.00;78.50;;;;;;5055690;28;20394;-76
2024/01/20 01:02:41;;;;;;;34.85;21.50;;;-2.00;79.10;;;;;;5055969;28;20382;-76
2024/01/20 01:05:07;;;;;;;36.65;21.30;;;-2.10;80.20;;;;;;5055033;28;20484;-76
2024/01/20 01:07:33;;;;;;;37.17;21.38;;;-2.00;80.70;;;;;;5055053;28;20409;-77
2024/01/20 01:09:59;;;;;;;36.28;20.98;;;-2.10;81.10;;;;;;5054964;28;20436;-76
2024/01/20 01:12:24;;;;;;;30.27;19.83;;;-2.10;79.30;;;;;;5057972;28;20381;-76
2024/01/20 01:14:50;;;;;;;38.93;21.60;;;-2.20;78.40;;;;;;5059735;28;20864;-75
2024/01/20 01:17:19;;;;;;;38.78;21.88;;;-2.20;78.90;;;;;;5056227;28;20401;-76
2024/01/20 01:19:45;;;;;;;36.88;20.73;;;-2.10;81.70;;;;;;5054191;28;20381;-75
2024/01/20 01:22:10;;;;;;;34.30;19.52;;;-2.10;78.40;;;;;;5053593;28;20386;-76
2024/01/20 01:24:37;;;;;;;38.05;22.58;;;-2.20;76.10;;;;;;5055836;28;20397;-76
2024/01/20 01:27:03;;;;;;;38.13;21.08;;;-2.20;79.40;;;;;;5056025;28;20390;-77
2024/01/20 01:29:29;;;;;;;33.90;20.10;;;-2.20;78.70;;;;;;5054927;28;20729;-74
2024/01/20 01:31:54;;;;;;;33.47;20.58;;;-2.20;78.00;;;;;;5055210;28;20556;-75
2024/01/20 01:34:20;;;;;;;35.50;20.03;;;-2.20;77.70;;;;;;5039258;28;20476;-76
2024/01/20 01:36:45;;;;;;;34.87;21.20;;;-2.20;78.60;;;;;;5043468;28;20393;-76
2024/01/20 01:39:13;;;;;;;31.45;19.10;;;-2.10;79.60;;;;;;5060057;28;20840;-77
2024/01/20 01:41:38;;;;;;;36.35;19.73;;;-2.10;74.60;;;;;;5042914;28;20389;-77
2024/01/20 01:44:04;;;;;;;35.65;20.98;;;-2.30;72.00;;;;;;5060684;28;20392;-76
2024/01/20 01:46:30;;;;;;;35.90;21.00;;;-2.30;75.00;;;;;;5054046;28;20404;-77
2024/01/20 01:48:57;;;;;;;34.55;22.13;;;-2.30;77.00;;;;;;5054347;28;20642;-76
2024/01/20 01:51:22;;;;;;;41.95;22.33;;;-2.30;78.00;;;;;;5054378;28;20386;-76
2024/01/20 01:53:49;;;;;;;32.90;20.87;;;-2.40;78.60;;;;;;5053921;28;20500;-76
2024/01/20 01:56:15;;;;;;;36.40;21.23;;;-2.40;77.90;;;;;;5053584;28;20390;-75
2024/01/20 01:58:44;;;;;;;36.28;21.50;;;-2.40;77.10;;;;;;5054799;28;20480;-76
2024/01/20 02:01:10;;;;;;;36.97;21.10;;;-2.30;76.30;;;;;;5036058;28;20416;-76
2024/01/20 02:03:35;;;;;;;35.45;21.73;;;-2.30;76.50;;;;;;5053015;28;20931;-75
2024/01/20 02:06:01;;;;;;;34.07;20.30;;;-2.30;77.20;;;;;;5053680;28;20421;-76
2024/01/20 02:08:28;;;;;;;35.07;21.70;;;-2.40;76.30;;;;;;5053467;28;20377;-75
2024/01/20 02:10:54;;;;;;;36.60;20.58;;;-2.40;77.40;;;;;;5054405;28;20396;-76
2024/01/20 02:13:20;;;;;;;36.80;20.33;;;-2.30;77.50;;;;;;5054126;28;20381;-77
2024/01/20 02:15:47;;;;;;;31.60;19.98;;;-2.40;76.70;;;;;;5053610;28;20721;-76
2024/01/20 02:18:12;;;;;;;31.83;20.30;;;-2.40;76.40;;;;;;5052929;28;20775;-78
2024/01/20 02:20:38;;;;;;;37.00;20.63;;;-2.40;75.90;;;;;;5053110;28;20377;-77
2024/01/20 02:23:03;;;;;;;35.03;21.40;;;-2.40;76.40;;;;;;5054809;28;20740;-75
2024/01/20 02:25:29;;;;;;;35.83;21.98;;;-2.40;76.60;;;;;;5053844;28;20405;-74
2024/01/20 02:27:54;;;;;;;35.42;22.20;;;-2.40;77.50;;;;;;5053540;28;20882;-76
2024/01/20 02:30:20;;;;;;;31.40;20.23;;;-2.30;77.30;;;;;;5052979;28;20779;-76
2024/01/20 02:32:46;;;;;;;37.27;21.83;;;-2.30;77.20;;;;;;5074762;22;20431;-70
2024/01/20 02:35:11;;;;;;;35.97;22.15;;;-2.30;75.80;;;;;;5075879;28;20472;-71
2024/01/20 02:37:37;;;;;;;35.85;21.30;;;-2.30;77.20;;;;;;5076057;28;20406;-71
2024/01/20 02:40:03;;;;;;;32.67;20.93;;;-2.20;75.10;;;;;;5076730;28;20581;-72
2024/01/20 02:42:28;;;;;;;32.75;20.92;;;-2.30;75.60;;;;;;5076463;28;20384;-72
2024/01/20 02:44:54;;;;;;;36.23;21.03;;;-2.40;75.40;;;;;;5075588;28;20403;-72
2024/01/20 02:47:20;;;;;;;32.57;20.90;;;-2.30;74.50;;;;;;5072221;28;20384;-71
2024/01/20 02:49:45;;;;;;;37.28;21.70;;;-2.40;73.60;;;;;;5072393;28;20383;-72
2024/01/20 02:52:11;;;;;;;39.03;22.47;;;-2.40;74.50;;;;;;5071379;28;20452;-72
2024/01/20 02:54:36;;;;;;;32.70;21.27;;;-2.50;74.70;;;;;;5071114;28;20380;-71
2024/01/20 02:57:02;;;;;;;31.40;20.83;;;-2.60;75.60;;;;;;5071114;28;20380;-72
2024/01/20 02:59:28;;;;;;;31.30;20.50;;;-2.70;76.20;;;;;;5072000;28;20380;-72
2024/01/20 03:01:53;;;;;;;37.73;22.73;;;-2.70;75.10;;;;;;5071022;28;20437;-71
2024/01/20 03:04:19;;;;;;;33.83;20.70;;;-2.70;75.10;;;;;;5071220;28;20444;-72
2024/01/20 03:06:44;;;;;;;33.30;21.13;;;-2.80;75.80;;;;;;5070211;28;20573;-72
2024/01/20 03:09:14;;;;;;;33.30;22.17;;;-2.70;76.90;;;;;;5071121;28;20402;-71
2024/01/20 03:11:41;;;;;;;35.55;22.40;;;-2.70;76.80;;;;;;5071081;28;20895;-71
2024/01/20 03:14:06;;;;;;;35.35;20.60;;;-2.70;76.60;;;;;;5070667;28;20380;-71
2024/01/20 03:16:32;;;;;;;36.07;21.97;;;-2.80;74.90;;;;;;5071379;28;20387;-72
2024/01/20 03:18:57;;;;;;;36.70;22.17;;;-2.80;76.00;;;;;;5070940;28;20442;-71
2024/01/20 03:21:23;;;;;;;38.95;22.15;;;-2.80;76.90;;;;;;5070994;28;20462;-72
2024/01/20 03:23:48;;;;;;;34.33;21.60;;;-2.80;76.80;;;;;;5070371;28;20423;-71
2024/01/20 03:26:14;;;;;;;32.50;21.53;;;-2.70;76.40;;;;;;5070908;28;20395;-71
2024/01/20 03:28:40;;;;;;;36.78;22.15;;;-2.80;76.20;;;;;;5070891;28;20792;-70
2024/01/20 03:31:06;;;;;;;37.88;22.20;;;-2.90;76.70;;;;;;5070652;28;20390;-70
2024/01/20 03:33:32;;;;;;;36.17;22.50;;;-2.80;77.90;;;;;;5070317;28;20861;-71
2024/01/20 03:35:57;;;;;;;35.00;22.03;;;-2.70;77.80;;;;;;5070743;28;20465;-71
2024/01/20 03:38:23;;;;;;;37.13;23.08;;;-2.70;76.40;;;;;;5070488;28;20398;-72
2024/01/20 03:40:48;;;;;;;36.95;23.30;;;-2.90;76.50;;;;;;5070352;28;20858;-71
2024/01/20 03:43:14;;;;;;;34.33;22.33;;;-2.90;77.60;;;;;;5070323;28;20766;-71
2024/01/20 03:45:42;;;;;;;36.20;22.10;;;-2.90;77.20;;;;;;5070625;28;20380;-72
2024/01/20 03:48:08;;;;;;;37.22;23.48;;;-3.00;76.60;;;;;;5070731;28;20599;-72
2024/01/20 03:50:34;;;;;;;33.92;23.08;;;-3.00;77.90;;;;;;5070283;28;20437;-71
2024/01/20 03:52:59;;;;;;;39.95;22.73;;;-3.10;77.50;;;;;;5070716;28;20390;-71
2024/01/20 03:55:25;;;;;;;36.75;23.10;;;-3.10;78.50;;;;;;5070257;28;20384;-71
2024/01/20 03:57:51;;;;;;;36.53;23.13;;;-3.10;79.40;;;;;;5070387;28;20896;-71
2024/01/20 04:00:16;;;;;;;40.03;24.48;;;-3.00;78.20;;;;;;5070508;28;20910;-71
2024/01/20 04:02:42;;;;;;;36.13;22.20;;;-3.10;77.70;;;;;;5070077;28;20896;-71
2024/01/20 04:05:08;;;;;;;39.30;24.17;;;-3.20;77.40;;;;;;5070478;28;20400;-71
2024/01/20 04:07:33;;;;;;;38.08;23.83;;;-3.10;77.90;;;;;;5072943;28;20384;-70
2024/01/20 04:09:59;;;;;;;37.30;23.90;;;-3.10;77.20;;;;;;5073792;28;20379;-70
2024/01/20 04:12:25;;;;;;;38.03;23.60;;;-3.10;78.50;;;;;;5073423;28;20462;-70
2024/01/20 04:14:50;;;;;;;37.40;23.93;;;-3.00;78.50;;;;;;5074296;28;20419;-72
2024/01/20 04:17:16;;;;;;;37.53;22.77;;;-3.10;78.60;;;;;;5074171;28;20398;-71
2024/01/20 04:19:41;;;;;;;38.55;23.33;;;-3.10;76.60;;;;;;5076046;28;20470;-71
2024/01/20 04:22:07;;;;;;;38.33;23.40;;;-3.10;76.20;;;;;;5074487;28;20439;-71
2024/01/20 04:24:33;;;;;;;37.87;24.60;;;-3.00;77.20;;;;;;5074076;28;20498;-71
2024/01/20 04:26:58;;;;;;;39.00;23.80;;;-3.00;77.70;;;;;;5074129;28;20425;-71
2024/01/20 04:29:24;;;;;;;39.38;23.30;;;-3.00;76.30;;;;;;5074003;28;20726;-70
2024/01/20 04:31:49;;;;;;;41.30;24.20;;;-2.90;77.00;;;;;;5073964;28;20835;-71
2024/01/20 04:34:15;;;;;;;39.03;24.53;;;-2.90;78.70;;;;;;5072307;28;20400;-71
2024/01/20 04:36:40;;;;;;;39.47;24.48;;;-2.70;79.40;;;;;;5073935;28;20750;-72
2024/01/20 04:39:06;;;;;;;39.15;23.33;;;-2.70;77.30;;;;;;5074271;28;20894;-71
2024/01/20 04:41:31;;;;;;;38.03;23.00;;;-2.80;75.70;;;;;;5074152;28;20376;-71
2024/01/20 04:43:57;;;;;;;40.33;23.43;;;-2.80;76.00;;;;;;5074201;28;20956;-71
2024/01/20 04:46:22;;;;;;;37.13;23.10;;;-2.70;77.10;;;;;;5074292;28;20414;-71
2024/01/20 04:48:48;;;;;;;36.90;22.70;;;-2.70;74.80;;;;;;5074028;28;20433;-71
2024/01/20 04:51:13;;;;;;;37.83;22.20;;;-2.80;73.80;;;;;;5073269;28;20463;-71
2024/01/20 04:53:39;;;;;;;39.77;22.97;;;-2.90;74.50;;;;;;5072985;28;20411;-71
2024/01/20 04:56:05;;;;;;;39.92;24.23;;;-3.00;74.80;;;;;;5071827;28;20580;-71
2024/01/20 04:58:31;;;;;;;36.38;23.52;;;-3.10;73.90;;;;;;5073432;28;20396;-72
2024/01/20 05:00:57;;;;;;;36.93;22.70;;;-3.10;75.70;;;;;;5073439;28;20892;-71
2024/01/20 05:03:22;;;;;;;39.70;23.80;;;-3.20;75.20;;;;;;5073136;28;20762;-71
2024/01/20 05:05:48;;;;;;;40.60;23.60;;;-3.20;73.40;;;;;;5073379;28;20941;-71
2024/01/20 05:08:14;;;;;;;39.30;23.57;;;-3.20;74.10;;;;;;5071736;28;20410;-72
2024/01/20 05:10:39;;;;;;;38.40;22.88;;;-3.20;75.10;;;;;;5072990;28;20390;-72
2024/01/20 05:13:05;;;;;;;36.63;22.90;;;-3.10;74.00;;;;;;5072385;28;20383;-70
2024/01/20 05:15:31;;;;;;;39.33;23.73;;;-3.20;73.10;;;;;;5073015;28;20783;-71
2024/01/20 05:17:56;;;;;;;37.22;22.70;;;-3.30;73.70;;;;;;5072241;28;20442;-70
2024/01/20 05:20:22;;;;;;;36.83;21.83;;;-3.20;74.20;;;;;;5072653;28;20870;-70
2024/01/20 05:22:48;;;;;;;40.17;23.25;;;-3.30;74.60;;;;;;5072591;28;20858;-70
2024/01/20 05:25:14;;;;;;;38.87;23.77;;;-3.20;75.20;;;;;;5074158;28;20969;-70
2024/01/20 05:27:40;;;;;;;38.38;22.55;;;-3.20;75.50;;;;;;5072873;28;20387;-70
2024/01/20 05:30:06;;;;;;;36.90;22.70;;;-3.20;75.50;;;;;;5071474;28;20733;-70
2024/01/20 05:32:32;;;;;;;36.67;21.80;;;-3.20;75.20;;;;;;5072377;28;20418;-70
2024/01/20 05:34:58;;;;;;;37.40;22.60;;;-3.20;75.10;;;;;;5072749;28;20471;-71
2024/01/20 05:37:23;;;;;;;37.05;22.52;;;-3.20;73.30;;;;;;5072809;28;20387;-71
2024/01/20 05:39:50;;;;;;;38.15;22.40;;;-3.30;74.70;;;;;;5072366;28;20379;-71
2024/01/20 05:42:15;;;;;;;40.00;22.40;;;-3.30;73.90;;;;;;5071021;28;20849;-71
2024/01/20 05:44:41;;;;;;;35.73;20.90;;;-3.40;75.20;;;;;;5072702;28;20411;-70
2024/01/20 05:47:06;;;;;;;40.80;23.70;;;-3.30;73.40;;;;;;5073035;28;20396;-71
2024/01/20 05:49:32;;;;;;;36.67;22.15;;;-3.40;72.80;;;;;;5081077;28;20384;-71
2024/01/20 05:51:57;;;;;;;37.13;22.10;;;-3.40;71.10;;;;;;5083496;28;20414;-72
2024/01/20 05:54:23;;;;;;;33.87;22.00;;;-3.40;70.20;;;;;;5074119;28;20395;-71
2024/01/20 05:56:49;;;;;;;39.83;22.20;;;-3.40;72.20;;;;;;5072821;28;20746;-71
2024/01/20 05:59:14;;;;;;;34.60;22.27;;;-3.50;73.20;;;;;;5076739;28;20395;-70
2024/01/20 06:01:40;;;;;;;37.92;22.50;;;-3.40;73.90;;;;;;5074931;28;20769;-72
2024/01/20 06:04:05;;;;;;;35.15;22.58;;;-3.40;74.00;;;;;;5072393;28;20889;-71
2024/01/20 06:06:31;;;;;;;38.07;22.30;;;-3.40;71.20;;;;;;5073348;28;20390;-71
2024/01/20 06:08:57;;;;;;;33.83;21.77;;;-3.40;71.40;;;;;;5085383;28;20456;-71
2024/01/20 06:11:24;;;;;;;35.42;20.77;;;-3.40;69.70;;;;;;5086928;28;20486;-71
2024/01/20 06:13:50;;;;;;;34.90;22.10;;;-3.40;68.60;;;;;;5074257;28;20888;-71
2024/01/20 06:16:15;;;;;;;34.22;21.73;;;-3.40;68.70;;;;;;5071735;28;20410;-71
2024/01/20 06:18:41;;;;;;;38.42;22.48;;;-3.40;70.00;;;;;;5072902;28;20509;-70
2024/01/20 06:21:06;;;;;;;35.83;22.15;;;-3.40;69.30;;;;;;5072611;28;20478;-70
2024/01/20 06:23:32;;;;;;;35.40;22.33;;;-3.40;69.70;;;;;;5075307;28;20714;-70
2024/01/20 06:25:59;;;;;;;33.20;22.00;;;-3.50;70.10;;;;;;5091721;28;20390;-70
2024/01/20 06:28:25;;;;;;;46.13;26.92;;;-3.50;68.20;;;;;;5089686;28;20807;-69
2024/01/20 06:30:51;;;;;;;43.40;25.55;;;-3.50;69.00;;;;;;5076720;28;20434;-70
2024/01/20 06:33:16;;;;;;;36.22;22.67;;;-3.50;70.20;;;;;;5071090;28;20808;-71
2024/01/20 06:35:42;;;;;;;40.42;24.73;;;-3.60;69.30;;;;;;5078851;28;20459;-72
2024/01/20 06:38:08;;;;;;;45.00;24.40;;;-3.60;69.70;;;;;;5082151;28;20407;-72
2024/01/20 06:40:33;;;;;;;38.90;24.05;;;-3.60;71.90;;;;;;5075240;28;20501;-72
2024/01/20 06:42:59;;;;;;;37.33;22.50;;;-3.50;72.00;;;;;;5077023;28;20381;-70
2024/01/20 06:45:24;;;;;;;38.20;23.20;;;-3.50;71.90;;;;;;5079635;28;20417;-71
2024/01/20 06:47:50;;;;;;;34.80;22.50;;;-3.50;70.00;;;;;;5070293;28;20423;-71
2024/01/20 06:50:16;;;;;;;38.88;22.73;;;-3.60;69.70;;;;;;5068678;28;20399;-72
2024/01/20 06:52:41;;;;;;;37.90;22.83;;;-3.60;68.60;;;;;;5082089;28;20395;-71
2024/01/20 06:55:07;;;;;;;36.77;23.00;;;-3.60;69.20;;;;;;5088853;28;20944;-72
2024/01/20 06:57:33;;;;;;;43.95;23.52;;;-3.70;69.80;;;;;;5085550;28;20397;-71
2024/01/20 06:59:58;;;;;;;37.00;22.80;;;-3.60;70.10;;;;;;5084053;28;20872;-71
2024/01/20 07:02:24;;;;;;;36.63;21.90;;;-3.60;69.50;;;;;;5083072;28;20394;-71
2024/01/20 07:04:49;;;;;;;37.00;21.87;;;-3.60;70.10;;;;;;5068020;28;20435;-71
2024/01/20 07:07:16;;;;;;;39.40;22.13;;;-3.50;68.90;;;;;;5067681;28;20400;-72
2024/01/20 07:09:41;;;;;;;39.20;22.92;;;-3.60;66.90;;;;;;5072839;28;20414;-72
2024/01/20 07:12:10;;;;;;;34.17;21.07;;;-3.50;68.60;;;;;;5075385;28;20495;-72
2024/01/20 07:14:35;;;;;;;34.28;21.42;;;-3.50;66.50;;;;;;5067982;28;20758;-71
2024/01/20 07:17:01;;;;;;;37.40;22.07;;;-3.50;66.50;;;;;;5067586;28;20383;-72
2024/01/20 07:19:27;;;;;;;37.80;21.95;;;-3.60;67.10;;;;;;5081930;28;20390;-73
2024/01/20 07:21:52;;;;;;;38.30;22.37;;;-3.60;66.70;;;;;;5070629;28;20379;-72
2024/01/20 07:24:18;;;;;;;34.00;20.73;;;-3.50;65.80;;;;;;5072107;28;20425;-72
2024/01/20 07:26:43;;;;;;;37.15;22.05;;;-3.50;64.90;;;;;;5073544;28;20398;-71
2024/01/20 07:29:09;;;;;;;36.60;20.63;;;-3.50;63.40;;;;;;5072366;28;20375;-70
2024/01/20 07:31:34;;;;;;;34.87;20.90;;;-3.50;63.80;;;;;;5071278;28;20410;-72
2024/01/20 07:34:00;;;;;;;33.07;21.33;;;-3.50;63.40;;;;;;5071432;28;20742;-71
2024/01/20 07:36:26;;;;;;;37.45;22.65;;;-3.60;62.60;;;;;;5071751;28;20867;-69
2024/01/20 07:38:51;;;;;;;36.57;21.77;;;-3.60;63.90;;;;;;5089272;28;20737;-71
2024/01/20 07:41:18;;;;;;;35.85;21.70;;;-3.50;63.30;;;;;;5090509;28;20713;-72
2024/01/20 07:43:43;;;;;;;37.30;22.05;;;-3.50;63.70;;;;;;5089606;28;20402;-71
2024/01/20 07:46:09;;;;;;;36.63;21.60;;;-3.50;63.60;;;;;;5078672;28;20381;-72
2024/01/20 07:48:34;;;;;;;41.00;24.00;;;-3.50;63.50;;;;;;5082681;28;20385;-70
2024/01/20 07:51:00;;;;;;;38.70;22.90;;;-3.50;64.50;;;;;;5094613;28;20382;-71
2024/01/20 07:53:27;;;;;;;36.10;22.00;;;-3.50;65.30;;;;;;5079901;28;20966;-71
2024/01/20 07:55:53;;;;;;;42.30;25.33;;;-3.50;66.00;;;;;;5073907;28;20379;-71
2024/01/20 07:58:19;;;;;;;43.00;25.15;;;-3.50;67.00;;;;;;5082608;28;20921;-70
2024/01/20 08:00:44;;;;;;;42.67;23.48;;;-3.40;67.70;;;;;;5094033;28;20378;-70
2024/01/20 08:03:10;;;;;;;41.57;24.77;;;-3.40;64.90;;;;;;5093809;28;20859;-72
2024/01/20 08:05:36;;;;;;;35.60;22.15;;;-3.30;65.20;;;;;;5085020;28;20410;-72
2024/01/20 08:08:03;;;;;;;34.30;21.85;;;-3.30;62.40;;;;;;5075121;28;20383;-70
2024/01/20 08:10:28;;;;;;;36.67;22.73;;;-3.30;62.30;;;;;;5074154;28;20722;-71
2024/01/20 08:12:55;;;;;;;40.87;23.97;;;-3.20;62.40;;;;;;5073415;28;20462;-72
2024/01/20 08:15:22;;;;;;;35.72;21.95;;;-3.20;63.00;;;;;;5073256;28;20955;-72
2024/01/20 08:17:48;;;;;;;33.13;23.02;;;-3.20;62.50;;;;;;5075954;28;20383;-71
2024/01/20 08:20:14;;;;;;;37.78;23.05;;;-3.10;64.50;;;;;;5076983;28;20394;-72
2024/01/20 08:22:40;;;;;;;37.92;23.40;;;-3.00;61.60;;;;;;5073351;28;20375;-72
2024/01/20 08:25:06;;;;;;;40.88;24.73;;;-3.00;60.50;;;;;;5076708;28;20806;-72
2024/01/20 08:27:31;;;;;;;38.17;24.38;;;-3.00;62.70;;;;;;5074337;28;20771;-70
2024/01/20 08:29:57;;;;;;;39.00;23.80;;;-2.90;63.00;;;;;;5086289;28;20420;-70
2024/01/20 08:32:23;;;;;;;36.53;22.48;;;-2.90;62.10;;;;;;5093947;22;20396;-73
2024/01/20 08:34:48;;;;;;;37.08;22.63;;;-2.80;63.70;;;;;;5073127;28;20392;-73
2024/01/20 08:37:14;;;;;;;44.90;24.13;;;-2.80;62.70;;;;;;5073597;28;20412;-72
2024/01/20 08:39:39;;;;;;;36.50;21.80;;;-2.60;62.20;;;;;;5070201;28;20912;-71
2024/01/20 08:42:05;;;;;;;36.23;22.83;;;-2.60;61.30;;;;;;5075284;28;20388;-73
2024/01/20 08:44:32;;;;;;;37.85;23.35;;;-2.50;62.80;;;;;;5074707;28;20419;-75
2024/01/20 08:46:58;;;;;;;34.47;21.10;;;-2.40;60.40;;;;;;5074868;28;20388;-75
2024/01/20 08:49:23;;;;;;;30.20;19.40;;;-2.30;56.50;;;;;;5074773;28;20384;-73
2024/01/20 08:51:49;;;;;;;37.67;22.60;;;-2.40;56.70;;;;;;5073731;28;20389;-74
2024/01/20 08:54:15;;;;;;;38.25;21.50;;;-2.30;57.60;;;;;;5072399;28;20387;-72
2024/01/20 08:56:41;;;;;;;39.33;23.45;;;-2.20;55.60;;;;;;5085394;28;20883;-73
2024/01/20 08:59:07;;;;;;;35.50;22.27;;;-2.10;57.10;;;;;;5096300;28;20382;-73
2024/01/20 09:01:32;;;;;;;37.03;23.20;;;-2.10;57.10;;;;;;5101211;28;20414;-71
2024/01/20 09:04:00;;;;;;;32.63;19.70;;;-2.10;56.30;;;;;;5098838;28;20891;-72
2024/01/20 09:06:25;;;;;;;41.80;24.13;;;-2.00;55.20;;;;;;5096377;28;20418;-72
2024/01/20 09:08:51;;;;;;;31.87;20.00;;;-1.90;57.20;;;;;;5093527;28;20404;-73
2024/01/20 09:11:17;;;;;;;36.47;21.23;;;-1.90;53.90;;;;;;5091715;28;20385;-71
2024/01/20 09:13:42;;;;;;;37.72;22.60;;;-1.60;53.30;;;;;;5084503;28;20895;-72
2024/01/20 09:16:09;;;;;;;33.53;20.73;;;-1.50;53.70;;;;;;5074525;28;20383;-71
2024/01/20 09:18:34;;;;;;;36.22;20.80;;;-1.40;50.00;;;;;;5080758;28;20393;-72
2024/01/20 09:21:00;;;;;;;36.92;21.38;;;-1.40;52.50;;;;;;5092582;28;20383;-72
2024/01/20 09:23:25;;;;;;;39.80;22.47;;;-1.40;51.50;;;;;;5079534;28;20386;-71
2024/01/20 09:25:51;;;;;;;27.17;18.13;;;-1.30;53.60;;;;;;5076666;28;20390;-72
2024/01/20 09:28:16;;;;;;;36.37;22.23;;;-1.20;52.60;;;;;;5084833;28;20737;-75
2024/01/20 09:30:42;;;;;;;35.90;20.00;;;-1.10;51.40;;;;;;5081534;28;20390;-74
2024/01/20 09:33:08;;;;;;;29.92;17.52;;;-1.10;48.90;;;;;;5072010;28;20796;-74
2024/01/20 09:35:33;;;;;;;32.47;19.80;;;-1.00;48.90;;;;;;5088688;28;20385;-73
2024/01/20 09:37:59;;;;;;;37.30;21.97;;;-0.90;49.20;;;;;;5085821;28;20398;-74
2024/01/20 09:40:25;;;;;;;33.88;20.48;;;-0.80;50.90;;;;;;5094353;28;20402;-74
2024/01/20 09:42:51;;;;;;;31.45;19.15;;;-0.60;50.10;;;;;;5099765;28;20405;-74
2024/01/20 09:45:17;;;;;;;32.15;18.17;;;-0.50;48.70;;;;;;5103184;28;20436;-75
2024/01/20 09:47:42;;;;;;;33.30;19.67;;;-0.50;46.70;;;;;;5102720;28;20854;-75
2024/01/20 09:50:08;;;;;;;29.77;17.50;;;-0.40;47.60;;;;;;5094480;28;20854;-74
2024/01/20 09:52:46;;;;;;;30.27;17.80;;;-0.30;45.80;;;;;;5093015;28;20740;-73
2024/01/20 09:55:24;;;;;;;27.67;17.35;;;-0.30;44.60;;;;;;5095706;28;20393;-74
2024/01/20 09:57:50;;;;;;;35.38;19.30;;;-0.30;43.90;;;;;;5095066;28;20775;-74
2024/01/20 10:00:17;;;;;;;30.60;18.42;;;-0.20;44.80;;;;;;5095586;28;20492;-74
2024/01/20 10:02:46;;;;;;;30.13;17.67;;;0.20;43.50;;;;;;5093033;28;20382;-74
2024/01/20 10:05:12;;;;;;;26.52;15.90;;;0.60;43.10;;;;;;5100545;28;20911;-74
2024/01/20 10:07:39;;;;;;;29.63;17.90;;;0.90;40.30;;;;;;5099616;28;20476;-74
2024/01/20 10:10:06;;;;;;;32.03;17.77;;;0.80;39.70;;;;;;5092350;28;20385;-73
2024/01/20 10:12:31;;;;;;;31.27;17.77;;;0.70;40.10;;;;;;5092524;28;20374;-74
2024/01/20 10:14:57;;;;;;;34.87;18.50;;;0.50;40.90;;;;;;5092158;28;20466;-73
2024/01/20 10:17:22;;;;;;;35.00;18.50;;;0.40;41.60;;;;;;5091811;28;20465;-74
2024/01/20 10:19:48;;;;;;;33.70;17.50;;;0.40;42.20;;;;;;5091988;28;20443;-74
2024/01/20 10:22:14;;;;;;;32.90;17.63;;;0.40;41.30;;;;;;5092417;28;20381;-74
2024/01/20 10:24:49;;;;;;;31.88;17.60;;;0.40;41.30;;;;;;5094614;28;20972;-74
2024/01/20 10:27:19;;;;;;;32.80;17.42;;;0.50;41.40;;;;;;5092278;28;20418;-74
2024/01/20 10:29:48;;;;;;;33.83;19.58;;;0.50;42.00;;;;;;5091690;28;20382;-74
2024/01/20 10:32:14;;;;;;;36.05;19.33;;;0.70;43.00;;;;;;5093815;28;20381;-74
2024/01/20 10:34:41;;;;;;;31.52;16.60;;;0.70;41.30;;;;;;5091701;28;20427;-73
2024/01/20 10:37:11;;;;;;;36.10;18.80;;;0.80;39.40;;;;;;5091949;28;20398;-74
2024/01/20 10:39:42;;;;;;;33.10;17.65;;;0.70;40.10;;;;;;5089874;28;20938;-73
2024/01/20 10:42:18;;;;;;;34.65;17.90;;;0.70;41.40;;;;;;5091879;28;20571;-74
2024/01/20 10:45:09;;;;;;;35.13;18.73;;;0.70;42.60;;;;;;5091593;28;20394;-73
2024/01/20 10:47:37;;;;;;;36.88;19.45;;;0.80;42.40;;;;;;5090276;28;20371;-73
2024/01/20 10:50:07;;;;;;;36.53;19.15;;;0.80;41.70;;;;;;5091217;28;20381;-73
2024/01/20 10:52:38;;;;;;;52.07;25.97;;;0.80;41.00;;;;;;5091419;28;20852;-73
2024/01/20 10:55:05;;;;;;;36.15;17.55;;;0.90;43.40;;;;;;5092135;28;20718;-72
2024/01/20 10:57:31;;;;;;;35.00;19.30;;;0.90;41.30;;;;;;5090127;28;20394;-74
2024/01/20 10:59:59;;;;;;;37.92;20.05;;;1.00;41.80;;;;;;5091498;28;20462;-73
2024/01/20 11:02:26;;;;;;;32.88;17.70;;;0.90;40.90;;;;;;5091678;28;20381;-75
2024/01/20 11:04:52;;;;;;;33.50;18.77;;;0.90;41.00;;;;;;5095614;28;20401;-73
2024/01/20 11:07:26;;;;;;;36.72;18.38;;;0.80;40.30;;;;;;5094172;28;20386;-73
2024/01/20 11:10:01;;;;;;;34.45;17.83;;;0.90;42.40;;;;;;5094374;28;20385;-75
2024/01/20 11:12:28;;;;;;;33.92;18.20;;;0.90;41.50;;;;;;5092123;28;20382;-73
2024/01/20 11:14:55;;;;;;;35.75;18.63;;;1.00;41.60;;;;;;5091972;28;20791;-74
2024/01/20 11:17:22;;;;;;;35.13;18.27;;;1.00;41.90;;;;;;5090740;28;20408;-73
2024/01/20 11:19:50;;;;;;;33.53;17.55;;;1.00;40.60;;;;;;5091232;28;20887;-73
2024/01/20 11:22:32;;;;;;;32.97;18.60;;;1.00;41.00;;;;;;5090878;28;20393;-72
2024/01/20 11:25:02;;;;;;;34.30;17.58;;;1.10;40.90;;;;;;5091399;28;20485;-73
2024/01/20 11:27:27;;;;;;;37.67;19.80;;;1.10;40.90;;;;;;5091123;28;20384;-72
2024/01/20 11:30:07;;;;;;;33.47;17.37;;;1.10;42.10;;;;;;5090903;28;20374;-74
2024/01/20 11:32:33;;;;;;;32.03;17.90;;;1.30;40.80;;;;;;5091713;28;20410;-74
2024/01/20 11:35:00;;;;;;;29.60;16.55;;;1.40;39.00;;;;;;5091060;28;20516;-73
2024/01/20 11:37:30;;;;;;;31.27;16.85;;;1.40;38.50;;;;;;5094389;28;20877;-74
2024/01/20 11:40:07;;;;;;;33.03;17.70;;;1.40;39.00;;;;;;5092569;28;20386;-73
2024/01/20 11:42:33;;;;;;;31.92;18.63;;;1.50;39.20;;;;;;5089868;28;20398;-74
2024/01/20 11:45:00;;;;;;;35.88;19.08;;;1.50;40.00;;;;;;5091676;28;20484;-73
2024/01/20 11:47:27;;;;;;;34.00;18.13;;;1.70;41.30;;;;;;5092731;28;20465;-74
2024/01/20 11:49:54;;;;;;;35.92;19.08;;;1.70;40.20;;;;;;5091873;28;20392;-74
2024/01/20 11:52:20;;;;;;;33.97;18.60;;;1.80;40.50;;;;;;5094192;28;20472;-73
2024/01/20 11:54:46;;;;;;;31.10;17.20;;;1.90;40.10;;;;;;5099829;28;20401;-75
2024/01/20 11:57:22;;;;;;;31.70;18.03;;;1.90;39.30;;;;;;5093586;28;20872;-74
2024/01/20 11:59:48;;;;;;;31.05;16.98;;;1.90;39.10;;;;;;5092158;28;20400;-75
2024/01/20 12:02:18;;;;;;;32.00;17.73;;;1.90;39.20;;;;;;5094506;28;20465;-73
2024/01/20 12:04:43;;;;;;;30.65;16.17;;;2.00;38.70;;;;;;5090532;28;20404;-74
2024/01/20 12:07:09;;;;;;;29.77;17.65;;;2.00;36.50;;;;;;5096539;28;20378;-73
2024/01/20 12:09:35;;;;;;;30.60;16.30;;;2.00;36.70;;;;;;5097779;28;20397;-72
2024/01/20 12:12:02;;;;;;;33.70;17.73;;;2.10;38.00;;;;;;5096370;28;20389;-72
2024/01/20 12:14:28;;;;;;;30.70;17.17;;;2.10;38.10;;;;;;5090596;28;20537;-72
2024/01/20 12:16:54;;;;;;;28.40;15.90;;;2.10;36.50;;;;;;5091365;28;20389;-74
2024/01/20 12:19:20;;;;;;;26.70;15.43;;;2.00;36.60;;;;;;5091818;28;20389;-73
2024/01/20 12:21:46;;;;;;;29.70;16.50;;;2.10;36.00;;;;;;5090805;28;20374;-73
2024/01/20 12:24:12;;;;;;;29.90;16.95;;;2.20;36.00;;;;;;5090784;28;20459;-73